Ghent, WV (25843)

1:45 PM EDT on September 02, 2015 (GMT -0400)
Flat Top Lake | | Change Station
CLOSE
Current Station
Personal Weather Station
Location: Ghent, WV
Elevation: 2969 ft
Nearby Weather Stations

Elev 2969 ft 37.62 °N, 81.09 °W | Updated 14 minutes ago

Partly Cloudy
Partly Cloudy
80.1 °F
Feels Like 81 °F
N
2.7
Wind Variable Wind from NNW

Today
High -- | Low -- °F
--% Chance of Precip.
Yesterday
High -- | Low -- °F
Precip. -- in
6:55 AM 7:52 PM
Waning Gibbous, 78% visible
Pressure 30.09 in
Visibility 10.0 miles
Clouds Few 3300 ft
Scattered Clouds 8000 ft
Scattered Clouds 10000 ft
Heat Index 81 °F
Dew Point 62 °F
Humidity 54%
Rainfall 0.00 in
Snow Depth Not available.
UV 8 out of 12
Pollen 9.30 out of 12
Air Quality Not available.
Flu Activity Not available.
METAR KBKW 021651Z AUTO VRB03KT 10SM FEW033 SCT080 SCT100 26/16 A3019 RMK AO2 SLP189 T02610161
Pressure 30.09 in
Visibility 10.0 miles
Clouds Few 3300 ft
Scattered Clouds 8000 ft
Scattered Clouds 10000 ft
Heat Index 81 °F
Dew Point 62 °F
Humidity 54%
Rainfall 0.00 in
Snow Depth Not available.
UV 8 out of 12
Pollen 9.30 out of 12
Air Quality Not available.
Flu Activity Not available.
METAR KBKW 021651Z AUTO VRB03KT 10SM FEW033 SCT080 SCT100 26/16 A3019 RMK AO2 SLP189 T02610161

10-Day Weather Forecast

×

Almanac

Astronomy

Sep. 02, 2015 Rise Set
Actual Time
Civil Twilight
Nautical Twilight
Astronomical Twilight
Moon
Length of Visible Light
Length of Day
Tomorrow will be .
, % of the Moon is Illuminated

Today's Extremes

State Highs State Lows

Community

WunderPhotos

Upload Photos

1,851,789 photos uploaded!

WunderBlogs® & News

Nearby

Air Quality

  Air Quality AQ Index Pollutant
Not available.

Snow Depth

Station Depth Elevation

Earthquake Activity

City Distance Mag. Time & Date
Minimum magnitude displayed is 2.5.

Coastal Water Temperatures

Place Temperature

Stations

Nearby Weather Stations

Station Location Temp. Windchill Dew Point Humidity Wind Precip. Elev Updated Type